LEBB/BIO METAR and TAF weather

Enter ICAO airport designator
Station Type Date Time Source
LEBB METAR 2021/09/23 17:00 UTC NOAA

LEBB 231700Z 07006KT 030V110 9999 FEW023 22/17 Q1020 NOSIG


Station Type Date Time Source
LEBB Decoded METAR 2021/09/23 17:00 UTC NOAA

Bilbao / Sondica, Spain (LEBB) 43-18N 002-56W 37M
Sep 23, 2021 - 01:00 PM EDT / 2021.09.23 1700 UTC
Wind: from the ENE (070 degrees) at 7 MPH (6 KT) (direction variable):0
Visibility: greater than 7 mile(s):0
Sky conditions: mostly clear
Temperature: 71 F (22 C)
Dew Point: 62 F (17 C)
Relative Humidity: 73%
Pressure (altimeter): 30.12 in. Hg (1020 hPa)
ob: LEBB 231700Z 07006KT 030V110 9999 FEW023 22/17 Q1020 NOSIG
cycle: 17

Station Type Date Time Source
LEBB TAF 2021/09/23 12:27 UTC NOAA

TAF LEBB 231100Z 2312/2412 VRB05KT 9999 FEW040 TX23/2315Z TN13/2405Z PROB40
TEMPO 2312/2318 01010KT PROB40
TEMPO 2322/2407 3000 BR

Example: see airport list